Time;durP1;ratioP1;P1;durP2;ratioP2;P2;SDS_P1;SDS_P2;PMS_P1;PMS_P2;Temp;Humidity;BMP_temperature;BMP_pressure;BME280_temperature;BME280_humidity;BME280_pressure;Samples;Min_cycle;Max_cycle;Signal;HPM_P1;HPM_P2
2022/03/12 00:00:36;;;;;;;7.30;5.15;;;11.40;1.00;;;;;;5026143;28;20052;-90
2022/03/12 00:03:02;;;;;;;7.57;5.28;;;11.30;1.00;;;;;;5035529;28;20045;-90
2022/03/12 00:05:30;;;;;;;7.30;5.47;;;11.20;1.00;;;;;;5028068;28;20506;-89
2022/03/12 00:07:57;;;;;;;5.53;4.57;;;11.20;1.00;;;;;;4998991;28;20109;-90
2022/03/12 00:10:23;;;;;;;6.70;5.07;;;11.40;1.00;;;;;;5035045;28;20041;-90
2022/03/12 00:12:50;;;;;;;6.63;5.13;;;11.30;1.00;;;;;;5017581;28;20087;-90
2022/03/12 00:15:16;;;;;;;7.95;5.22;;;11.30;1.00;;;;;;5035145;28;20033;-91
2022/03/12 00:17:46;;;;;;;7.00;5.10;;;11.40;1.00;;;;;;5013880;28;20029;-90
2022/03/12 00:20:15;;;;;;;6.90;5.15;;;11.30;1.00;;;;;;5035323;28;20088;-90
2022/03/12 00:22:45;;;;;;;6.00;4.75;;;11.40;1.00;;;;;;5034816;28;20045;-90
2022/03/12 00:25:13;;;;;;;5.38;4.68;;;11.30;1.00;;;;;;5035324;28;20064;-90
2022/03/12 00:27:41;;;;;;;5.38;4.45;;;11.40;1.00;;;;;;5035002;28;20053;-90
2022/03/12 00:30:09;;;;;;;6.47;4.63;;;11.40;1.00;;;;;;5034665;28;20099;-90
2022/03/12 00:32:36;;;;;;;6.03;4.70;;;11.40;1.00;;;;;;5035107;28;20032;-91
2022/03/12 00:35:09;;;;;;;5.32;4.15;;;11.40;1.00;;;;;;5035090;28;20033;-90
2022/03/12 00:37:34;;;;;;;5.60;4.38;;;11.30;1.00;;;;;;5034953;28;20045;-90
2022/03/12 00:40:00;;;;;;;4.88;3.85;;;11.20;1.00;;;;;;5034641;28;20030;-90
2022/03/12 00:42:26;;;;;;;4.85;4.30;;;11.50;1.00;;;;;;5033623;28;20433;-90
2022/03/12 00:44:51;;;;;;;5.50;4.07;;;11.50;1.00;;;;;;5035185;28;20029;-90
2022/03/12 00:47:17;;;;;;;5.97;3.90;;;11.40;1.00;;;;;;5034426;28;20040;-91
2022/03/12 00:49:44;;;;;;;4.22;3.83;;;11.20;1.00;;;;;;5016481;28;20057;-90
2022/03/12 00:52:10;;;;;;;5.07;4.25;;;11.00;1.00;;;;;;5034208;28;20037;-90
2022/03/12 00:54:36;;;;;;;5.45;4.05;;;11.10;1.00;;;;;;5017093;28;20404;-90
2022/03/12 00:57:01;;;;;;;5.25;3.95;;;11.40;1.00;;;;;;5017080;28;20029;-90
2022/03/12 00:59:27;;;;;;;3.78;3.20;;;11.40;1.00;;;;;;5017390;28;20061;-90
2022/03/12 01:01:53;;;;;;;3.90;3.35;;;11.40;1.00;;;;;;5034608;28;20018;-90
2022/03/12 01:04:18;;;;;;;5.18;3.60;;;11.10;1.00;;;;;;5034141;28;20117;-90
2022/03/12 01:06:45;;;;;;;4.07;3.63;;;11.10;1.00;;;;;;5032817;28;20021;-90
2022/03/12 01:09:11;;;;;;;3.92;3.42;;;11.00;1.00;;;;;;5034427;28;20490;-91
2022/03/12 01:11:38;;;;;;;4.75;3.50;;;11.20;1.00;;;;;;5034100;28;20095;-90
2022/03/12 01:14:06;;;;;;;3.90;3.50;;;11.20;1.00;;;;;;5034719;28;20025;-91
2022/03/12 01:16:33;;;;;;;3.83;3.30;;;11.10;1.00;;;;;;5034503;28;20064;-91
2022/03/12 01:18:58;;;;;;;4.00;3.30;;;10.90;1.00;;;;;;5013098;28;20563;-90
2022/03/12 01:21:24;;;;;;;5.03;3.88;;;10.80;1.00;;;;;;5027183;28;20052;-90
2022/03/12 01:23:51;;;;;;;5.20;3.85;;;10.90;1.00;;;;;;5033818;28;20041;-90
2022/03/12 01:26:18;;;;;;;6.78;3.30;;;10.90;1.00;;;;;;5032271;28;20393;-91
2022/03/12 01:28:45;;;;;;;4.63;3.58;;;11.00;1.00;;;;;;5032426;28;20104;-90
2022/03/12 01:31:11;;;;;;;3.78;2.80;;;11.00;1.00;;;;;;4997302;28;20042;-90
2022/03/12 01:33:38;;;;;;;5.45;3.65;;;11.00;1.00;;;;;;5014844;28;20393;-90
2022/03/12 01:36:05;;;;;;;4.82;3.35;;;10.90;1.00;;;;;;5025515;28;20052;-90
2022/03/12 01:38:54;;;;;;;3.85;3.10;;;11.00;1.00;;;;;;5008843;28;20060;-90
2022/03/12 01:41:30;;;;;;;4.07;2.92;;;11.00;1.00;;;;;;5018364;28;20044;-90
2022/03/12 01:43:57;;;;;;;3.92;3.25;;;11.00;1.00;;;;;;5029644;28;20533;-89
2022/03/12 01:46:34;;;;;;;3.45;3.15;;;11.00;1.00;;;;;;5034023;28;20017;-90
2022/03/12 01:49:05;;;;;;;4.45;3.28;;;11.00;1.00;;;;;;5009972;28;20026;-90
2022/03/12 01:51:31;;;;;;;4.00;3.47;;;10.90;1.00;;;;;;5030562;28;20026;-90
2022/03/12 01:53:58;;;;;;;5.13;3.85;;;11.00;1.00;;;;;;5033953;28;20036;-90
2022/03/12 01:56:27;;;;;;;3.90;3.45;;;11.10;1.00;;;;;;5031153;28;20029;-90
2022/03/12 01:58:53;;;;;;;3.47;3.00;;;11.10;1.00;;;;;;5005776;28;20034;-91
2022/03/12 02:01:19;;;;;;;4.13;3.42;;;11.00;1.00;;;;;;5016729;28;20511;-90
2022/03/12 02:03:46;;;;;;;3.35;3.05;;;11.10;1.00;;;;;;5033290;28;20030;-90
2022/03/12 02:06:15;;;;;;;5.00;3.28;;;11.00;1.00;;;;;;5033651;28;20038;-90
2022/03/12 02:08:41;;;;;;;4.47;3.67;;;10.90;1.00;;;;;;5033286;28;20068;-90
2022/03/12 02:11:07;;;;;;;4.25;3.40;;;10.90;1.00;;;;;;5033645;28;20049;-90
2022/03/12 02:13:35;;;;;;;4.68;3.50;;;10.90;1.00;;;;;;5015931;28;20033;-90
2022/03/12 02:16:08;;;;;;;4.72;3.30;;;11.00;1.00;;;;;;5050299;28;20025;-90
2022/03/12 02:18:47;;;;;;;4.00;3.60;;;11.00;1.00;;;;;;5015065;28;20083;-90
2022/03/12 02:21:13;;;;;;;3.17;2.58;;;10.90;1.00;;;;;;5033993;28;20030;-90
2022/03/12 02:23:49;;;;;;;3.80;2.88;;;10.90;1.00;;;;;;5019171;28;20042;-90
2022/03/12 02:26:15;;;;;;;2.85;2.50;;;10.90;1.00;;;;;;5036933;28;20553;-90
2022/03/12 02:28:41;;;;;;;6.10;3.10;;;11.10;1.00;;;;;;5036729;28;20053;-90
2022/03/12 02:31:07;;;;;;;3.28;2.72;;;11.10;1.00;;;;;;5030424;28;20029;-90
2022/03/12 02:33:33;;;;;;;2.92;2.60;;;11.20;1.00;;;;;;5020032;28;20026;-90
2022/03/12 02:35:59;;;;;;;3.40;3.00;;;11.20;1.00;;;;;;5018976;28;20040;-90
2022/03/12 02:38:28;;;;;;;4.18;2.95;;;11.30;1.00;;;;;;5036824;28;20021;-90
2022/03/12 02:40:54;;;;;;;4.47;3.10;;;11.30;1.00;;;;;;5036872;28;20034;-91
2022/03/12 02:43:26;;;;;;;3.08;2.70;;;11.30;1.00;;;;;;5036851;28;20033;-90
2022/03/12 02:46:00;;;;;;;4.05;2.97;;;11.20;1.00;;;;;;5036465;28;20502;-90
2022/03/12 02:48:26;;;;;;;4.00;3.20;;;11.60;1.00;;;;;;5036463;28;20037;-89
2022/03/12 02:50:53;;;;;;;3.97;3.13;;;11.50;1.00;;;;;;5036430;28;20037;-90
2022/03/12 02:53:19;;;;;;;3.30;2.90;;;11.20;1.00;;;;;;5036049;28;20024;-90
2022/03/12 02:55:45;;;;;;;3.50;2.90;;;11.30;1.00;;;;;;5036535;28;20029;-90
2022/03/12 02:58:15;;;;;;;2.95;2.65;;;11.30;1.00;;;;;;5019736;28;20018;-91
2022/03/12 03:00:41;;;;;;;3.45;2.97;;;11.20;1.00;;;;;;5036701;28;20426;-90
2022/03/12 03:03:07;;;;;;;2.95;2.60;;;11.20;1.00;;;;;;5036813;28;20037;-91
2022/03/12 03:05:44;;;;;;;3.83;3.00;;;11.20;1.00;;;;;;5036551;28;20045;-91
2022/03/12 03:08:13;;;;;;;6.13;2.90;;;11.30;1.00;;;;;;5031974;28;20030;-91
2022/03/12 03:10:41;;;;;;;3.88;3.03;;;11.30;1.00;;;;;;5033753;28;20051;-90
2022/03/12 03:13:16;;;;;;;3.10;2.53;;;11.30;1.00;;;;;;5036797;28;20032;-90
2022/03/12 03:16:24;;;;;;;3.28;2.45;;;11.30;1.00;;;;;;5036616;28;20025;-90
2022/03/12 03:18:52;;;;;;;3.78;2.90;;;11.30;1.00;;;;;;4930676;29;20043;-90
2022/03/12 03:21:20;;;;;;;3.25;2.65;;;11.20;1.00;;;;;;4937195;29;20196;-91
2022/03/12 03:23:46;;;;;;;3.10;2.80;;;11.20;1.00;;;;;;4928569;29;20035;-90
2022/03/12 03:26:14;;;;;;;4.88;2.90;;;11.30;1.00;;;;;;4954335;29;20118;-90
2022/03/12 03:28:43;;;;;;;4.82;2.83;;;11.40;1.00;;;;;;4956930;29;20038;-90
2022/03/12 03:31:08;;;;;;;4.40;3.10;;;11.40;1.00;;;;;;4937059;29;20036;-90
2022/03/12 03:33:34;;;;;;;3.13;2.78;;;11.30;1.00;;;;;;4920923;29;20122;-90
2022/03/12 03:36:00;;;;;;;3.35;2.67;;;11.30;1.00;;;;;;4937203;29;20031;-90
2022/03/12 03:38:26;;;;;;;2.88;2.60;;;11.40;1.00;;;;;;4940568;29;20031;-91
2022/03/12 03:40:51;;;;;;;4.03;3.15;;;11.30;1.00;;;;;;4937290;29;20035;-91
2022/03/12 03:43:22;;;;;;;4.80;2.70;;;11.20;1.00;;;;;;4903410;29;20067;-90
2022/03/12 03:45:51;;;;;;;4.13;2.90;;;11.20;1.00;;;;;;4902127;29;20036;-90
2022/03/12 03:48:22;;;;;;;3.42;2.90;;;11.20;1.00;;;;;;4930690;28;20051;-90
2022/03/12 03:50:49;;;;;;;3.08;2.78;;;11.20;1.00;;;;;;5015602;28;20044;-90
2022/03/12 03:53:17;;;;;;;3.58;3.00;;;11.10;1.00;;;;;;5032142;28;20482;-91
2022/03/12 03:55:44;;;;;;;5.13;3.38;;;11.10;1.00;;;;;;5035248;28;20057;-90
2022/03/12 03:58:13;;;;;;;3.55;3.03;;;11.00;1.00;;;;;;5036299;28;20032;-90
2022/03/12 04:00:39;;;;;;;3.35;3.05;;;11.00;1.00;;;;;;5034924;28;20037;-90
2022/03/12 04:03:04;;;;;;;5.53;3.15;;;10.90;1.00;;;;;;5035630;28;20041;-91
2022/03/12 04:05:39;;;;;;;4.63;3.30;;;11.40;1.00;;;;;;5035129;28;20040;-91
2022/03/12 04:08:07;;;;;;;4.13;3.30;;;11.00;1.00;;;;;;5035849;28;20505;-90
2022/03/12 04:10:34;;;;;;;4.78;3.30;;;10.90;1.00;;;;;;5017999;28;20115;-90
2022/03/12 04:13:00;;;;;;;5.40;3.50;;;10.90;1.00;;;;;;5035486;28;20452;-90
2022/03/12 04:15:26;;;;;;;5.22;3.20;;;10.90;1.00;;;;;;5029719;28;20034;-90
2022/03/12 04:17:53;;;;;;;5.63;3.30;;;11.00;1.00;;;;;;5035564;28;20026;-91
2022/03/12 04:20:20;;;;;;;4.13;3.30;;;10.90;1.00;;;;;;5035600;28;20026;-91
2022/03/12 04:22:48;;;;;;;3.50;3.20;;;11.00;1.00;;;;;;5033580;28;20069;-90
2022/03/12 04:25:14;;;;;;;3.90;3.50;;;11.00;1.00;;;;;;4998056;28;20030;-90
2022/03/12 04:27:44;;;;;;;4.85;3.58;;;10.80;1.00;;;;;;5029032;28;20051;-91
2022/03/12 04:30:11;;;;;;;4.10;3.50;;;10.80;1.00;;;;;;5016972;28;20412;-91
2022/03/12 04:32:37;;;;;;;4.18;3.47;;;10.70;1.00;;;;;;5017033;28;20037;-91
2022/03/12 04:35:05;;;;;;;6.20;3.55;;;10.70;1.00;;;;;;5017743;28;20040;-90
2022/03/12 04:37:32;;;;;;;4.78;3.50;;;10.80;1.00;;;;;;5035223;28;20026;-91
2022/03/12 04:39:58;;;;;;;3.58;3.25;;;10.80;1.00;;;;;;5034549;28;20025;-90
2022/03/12 04:42:24;;;;;;;4.45;3.30;;;10.80;1.00;;;;;;5035401;28;20108;-90
2022/03/12 04:44:50;;;;;;;4.82;3.88;;;10.70;1.00;;;;;;5025521;28;20111;-90
2022/03/12 04:47:19;;;;;;;4.35;3.38;;;10.70;1.00;;;;;;5017467;28;20040;-90
2022/03/12 04:49:45;;;;;;;6.78;4.18;;;10.70;1.00;;;;;;5035044;28;20048;-91
2022/03/12 04:52:11;;;;;;;5.38;4.30;;;10.70;1.00;;;;;;5017249;28;20053;-90
2022/03/12 04:54:37;;;;;;;5.47;4.30;;;10.60;1.00;;;;;;5017684;28;20079;-90
2022/03/12 04:57:04;;;;;;;4.88;3.83;;;10.70;1.00;;;;;;5026272;28;20033;-90
2022/03/12 04:59:30;;;;;;;4.55;3.65;;;10.60;1.00;;;;;;5034856;28;20052;-90
2022/03/12 05:01:57;;;;;;;4.82;3.90;;;10.60;1.00;;;;;;5016747;28;20500;-90
2022/03/12 05:04:23;;;;;;;5.15;3.88;;;10.60;1.00;;;;;;5017533;28;20036;-91
2022/03/12 05:06:49;;;;;;;5.60;4.18;;;10.60;1.00;;;;;;5016594;28;20022;-92
2022/03/12 05:09:14;;;;;;;4.47;3.50;;;10.60;1.00;;;;;;5034591;28;20036;-90
2022/03/12 05:11:40;;;;;;;4.20;3.53;;;10.60;1.00;;;;;;5033944;28;20147;-90
2022/03/12 05:14:10;;;;;;;5.75;3.97;;;10.60;1.00;;;;;;5012205;28;20111;-90
2022/03/12 05:16:36;;;;;;;4.97;3.80;;;10.50;1.00;;;;;;5030750;28;20120;-91
2022/03/12 05:19:06;;;;;;;5.22;4.03;;;10.50;1.00;;;;;;5034754;28;20053;-91
2022/03/12 05:21:32;;;;;;;4.30;3.88;;;10.50;1.00;;;;;;5034132;28;20112;-90
2022/03/12 05:23:58;;;;;;;4.25;3.78;;;10.50;1.00;;;;;;5026373;28;20124;-92
2022/03/12 05:26:24;;;;;;;5.00;3.67;;;10.40;1.00;;;;;;5016351;28;20038;-90
2022/03/12 05:28:49;;;;;;;5.45;3.85;;;10.50;1.00;;;;;;5016519;28;20021;-91
2022/03/12 05:31:16;;;;;;;4.47;3.22;;;10.50;1.00;;;;;;5016929;28;20501;-90
2022/03/12 05:33:42;;;;;;;4.22;3.78;;;10.50;1.00;;;;;;5038319;28;20101;-90
2022/03/12 05:36:08;;;;;;;4.35;3.50;;;10.50;1.00;;;;;;5016845;28;20508;-90
2022/03/12 05:38:36;;;;;;;4.63;3.70;;;10.40;1.00;;;;;;5034231;28;20033;-90
2022/03/12 05:41:06;;;;;;;5.25;3.88;;;10.40;1.00;;;;;;5012743;28;20081;-90
2022/03/12 05:43:33;;;;;;;4.45;3.60;;;10.50;1.00;;;;;;5014248;28;20046;-90
2022/03/12 05:46:00;;;;;;;4.18;3.30;;;10.50;1.00;;;;;;5014672;28;20034;-91
2022/03/12 05:48:27;;;;;;;4.95;3.72;;;10.60;1.00;;;;;;5025487;28;20509;-90
2022/03/12 05:50:53;;;;;;;5.13;3.72;;;10.50;1.00;;;;;;5034234;28;20033;-90
2022/03/12 05:53:19;;;;;;;4.20;3.80;;;10.50;1.00;;;;;;5027531;28;20037;-90
2022/03/12 05:55:47;;;;;;;4.63;3.42;;;10.60;1.00;;;;;;4998114;28;20128;-90
2022/03/12 05:58:18;;;;;;;7.78;3.75;;;10.50;1.00;;;;;;5036878;28;20032;-90
2022/03/12 06:00:45;;;;;;;6.40;4.10;;;10.50;1.00;;;;;;5038172;28;20505;-90
2022/03/12 06:03:10;;;;;;;4.38;3.50;;;10.50;1.00;;;;;;5024203;28;20037;-90
2022/03/12 06:05:40;;;;;;;5.32;3.60;;;10.50;1.00;;;;;;5018242;28;20025;-90
2022/03/12 06:08:06;;;;;;;5.03;4.00;;;10.50;1.00;;;;;;5018155;28;20025;-90
2022/03/12 06:10:37;;;;;;;4.72;3.70;;;10.50;1.00;;;;;;5033165;28;20029;-90
2022/03/12 06:13:03;;;;;;;6.38;3.85;;;10.50;1.00;;;;;;5019408;28;20124;-84
2022/03/12 06:15:29;;;;;;;7.10;3.63;;;10.60;1.00;;;;;;5034518;28;20026;-83
2022/03/12 06:17:55;;;;;;;4.70;3.78;;;10.90;1.00;;;;;;5034257;28;20037;-83
2022/03/12 06:20:22;;;;;;;5.65;3.75;;;11.00;1.00;;;;;;5034731;28;20060;-83
2022/03/12 06:22:53;;;;;;;4.90;3.85;;;11.00;1.00;;;;;;5034616;28;20048;-83
2022/03/12 06:25:22;;;;;;;4.57;3.92;;;11.20;1.00;;;;;;5034708;28;20040;-83
2022/03/12 06:27:53;;;;;;;5.72;4.00;;;11.00;1.00;;;;;;5034086;28;20020;-83
2022/03/12 06:30:21;;;;;;;6.13;4.18;;;11.00;1.00;;;;;;5034070;28;20179;-83
2022/03/12 06:32:47;;;;;;;4.40;3.83;;;11.00;1.00;;;;;;5034240;28;20074;-83
2022/03/12 06:35:13;;;;;;;5.50;4.28;;;11.10;1.00;;;;;;5034107;28;20068;-82
2022/03/12 06:37:43;;;;;;;5.47;4.25;;;11.00;1.00;;;;;;5034246;28;20021;-84
2022/03/12 06:40:11;;;;;;;5.07;4.40;;;11.10;1.00;;;;;;5018199;28;20029;-83
2022/03/12 06:42:39;;;;;;;5.57;4.60;;;11.10;1.00;;;;;;5033738;28;20384;-82
2022/03/12 06:45:06;;;;;;;6.93;4.72;;;11.10;1.00;;;;;;5033710;28;20383;-83
2022/03/12 06:47:33;;;;;;;5.30;4.40;;;11.10;1.00;;;;;;5034062;28;20076;-82
2022/03/12 06:50:00;;;;;;;8.00;4.93;;;11.10;1.00;;;;;;5033308;28;20379;-82
2022/03/12 06:52:27;;;;;;;4.55;4.05;;;11.20;1.00;;;;;;5034437;28;20519;-82
2022/03/12 06:54:53;;;;;;;4.15;3.75;;;11.00;1.00;;;;;;5016773;28;20429;-84
2022/03/12 06:57:19;;;;;;;6.32;4.00;;;11.10;1.00;;;;;;5033379;28;20033;-83
2022/03/12 06:59:45;;;;;;;5.68;4.13;;;11.40;1.00;;;;;;5031631;28;20029;-83
2022/03/12 07:02:11;;;;;;;5.35;3.97;;;11.20;1.00;;;;;;5032983;28;20043;-84
2022/03/12 07:04:37;;;;;;;7.32;4.00;;;11.30;1.00;;;;;;5033819;28;20033;-83
2022/03/12 07:07:03;;;;;;;7.05;4.35;;;11.30;1.00;;;;;;5033576;28;20021;-81
2022/03/12 07:09:29;;;;;;;6.85;5.20;;;11.20;1.00;;;;;;5031087;28;20477;-83
2022/03/12 07:11:58;;;;;;;8.15;5.10;;;11.20;1.00;;;;;;5031717;28;20044;-81
2022/03/12 07:14:24;;;;;;;5.60;4.90;;;11.10;1.00;;;;;;5033103;28;20037;-82
2022/03/12 07:16:50;;;;;;;6.47;4.82;;;11.10;1.00;;;;;;5033114;28;20040;-83
2022/03/12 07:19:16;;;;;;;4.50;4.10;;;11.00;1.00;;;;;;5033008;28;20018;-81
2022/03/12 07:21:41;;;;;;;5.75;4.75;;;11.00;1.00;;;;;;5032461;28;20037;-83
2022/03/12 07:24:07;;;;;;;8.57;4.78;;;10.90;1.00;;;;;;5032782;28;20402;-83
2022/03/12 07:26:33;;;;;;;5.88;4.32;;;10.90;1.00;;;;;;5031905;28;20083;-83
2022/03/12 07:29:00;;;;;;;5.65;4.05;;;10.80;1.00;;;;;;5033241;28;20017;-83
2022/03/12 07:31:26;;;;;;;5.28;3.88;;;10.80;1.00;;;;;;5033014;28;20121;-83
2022/03/12 07:33:52;;;;;;;4.28;3.70;;;10.70;1.00;;;;;;5027149;28;20108;-84
2022/03/12 07:36:18;;;;;;;4.50;4.00;;;10.70;1.00;;;;;;5032718;28;20022;-82
2022/03/12 07:38:44;;;;;;;6.28;4.00;;;10.70;1.00;;;;;;5032374;28;20033;-83
2022/03/12 07:41:10;;;;;;;5.22;4.05;;;10.70;1.00;;;;;;5029899;28;20021;-83
2022/03/12 07:43:36;;;;;;;4.72;3.97;;;10.80;1.00;;;;;;5033046;28;20505;-82
2022/03/12 07:46:03;;;;;;;4.65;3.63;;;10.80;1.00;;;;;;5029718;28;20086;-81
2022/03/12 07:48:28;;;;;;;3.72;3.22;;;10.80;1.00;;;;;;5032179;28;20078;-83
2022/03/12 07:50:55;;;;;;;4.63;3.47;;;10.70;1.00;;;;;;5031419;28;20049;-83
2022/03/12 07:53:21;;;;;;;5.47;3.45;;;10.90;1.00;;;;;;5032969;28;20025;-81
2022/03/12 07:55:47;;;;;;;5.68;3.45;;;10.90;1.00;;;;;;5032491;28;20025;-81
2022/03/12 07:58:14;;;;;;;5.72;3.63;;;11.00;1.00;;;;;;5031204;28;20402;-84
2022/03/12 08:00:40;;;;;;;3.67;3.08;;;11.20;1.00;;;;;;5032101;28;20032;-84
2022/03/12 08:03:06;;;;;;;3.55;3.08;;;11.30;1.00;;;;;;5032563;28;20398;-83
2022/03/12 08:05:32;;;;;;;4.80;3.40;;;11.20;1.00;;;;;;5032064;28;20032;-84
2022/03/12 08:07:59;;;;;;;5.32;3.08;;;11.10;1.00;;;;;;5032260;28;20521;-83
2022/03/12 08:10:24;;;;;;;4.78;3.03;;;11.20;1.00;;;;;;5033453;28;20051;-83
2022/03/12 08:12:50;;;;;;;4.25;2.80;;;11.20;1.00;;;;;;5015699;28;20569;-83
2022/03/12 08:15:17;;;;;;;4.25;3.28;;;11.10;1.00;;;;;;5032189;28;20176;-84
2022/03/12 08:17:44;;;;;;;4.07;3.17;;;11.20;1.00;;;;;;5029447;28;20029;-83
2022/03/12 08:20:11;;;;;;;4.05;3.25;;;11.30;1.00;;;;;;5030259;28;20018;-83
2022/03/12 08:22:41;;;;;;;3.55;3.20;;;11.40;1.00;;;;;;5031884;28;20042;-84
2022/03/12 08:25:09;;;;;;;5.63;3.33;;;11.40;1.00;;;;;;5031595;28;20505;-84
2022/03/12 08:27:36;;;;;;;4.47;3.05;;;11.30;1.00;;;;;;5031600;28;20033;-83
2022/03/12 08:30:04;;;;;;;4.88;3.10;;;11.40;1.00;;;;;;5031835;28;20028;-83
2022/03/12 08:32:30;;;;;;;4.50;2.85;;;11.30;1.00;;;;;;5032925;28;20556;-83
2022/03/12 08:34:58;;;;;;;3.88;2.95;;;11.50;1.00;;;;;;5031852;28;20065;-83
2022/03/12 08:37:24;;;;;;;4.88;3.55;;;11.60;1.00;;;;;;5032038;28;20029;-84
2022/03/12 08:39:50;;;;;;;6.72;3.35;;;11.80;1.00;;;;;;5032001;28;20489;-84
2022/03/12 08:42:16;;;;;;;4.35;3.50;;;11.80;1.00;;;;;;5015050;28;20030;-85
2022/03/12 08:44:41;;;;;;;3.85;3.03;;;11.80;1.00;;;;;;5031761;28;20029;-83
2022/03/12 08:47:07;;;;;;;3.60;2.92;;;11.90;1.00;;;;;;5031794;28;20436;-84
2022/03/12 08:49:33;;;;;;;4.25;3.20;;;11.80;1.00;;;;;;5031657;28;20033;-84
2022/03/12 08:51:59;;;;;;;4.20;3.47;;;11.80;1.00;;;;;;5031682;28;20073;-84
2022/03/12 08:54:25;;;;;;;5.15;3.47;;;11.80;1.00;;;;;;5031732;28;20049;-84
2022/03/12 08:56:51;;;;;;;4.53;3.00;;;12.00;1.00;;;;;;5031399;28;20116;-84
2022/03/12 08:59:17;;;;;;;4.78;3.10;;;12.00;1.00;;;;;;5030917;28;20521;-84
2022/03/12 09:01:44;;;;;;;3.53;3.05;;;12.10;1.00;;;;;;5031442;28;20481;-86
2022/03/12 09:04:11;;;;;;;4.43;3.63;;;12.10;1.00;;;;;;5031643;28;20022;-84
2022/03/12 09:06:36;;;;;;;4.35;3.58;;;12.00;1.00;;;;;;5031436;28;20017;-85
2022/03/12 09:09:02;;;;;;;4.15;3.42;;;11.80;1.00;;;;;;5031059;28;20021;-84
2022/03/12 09:11:28;;;;;;;3.72;2.97;;;11.80;1.00;;;;;;5031134;28;20025;-84
2022/03/12 09:13:54;;;;;;;4.03;3.50;;;12.00;1.00;;;;;;5031057;28;20124;-84
2022/03/12 09:16:20;;;;;;;6.57;3.80;;;12.00;1.00;;;;;;5032092;28;20056;-84
2022/03/12 09:18:46;;;;;;;6.03;3.70;;;12.10;1.00;;;;;;5030478;28;20025;-84
2022/03/12 09:21:11;;;;;;;4.20;3.80;;;12.10;1.00;;;;;;5031350;28;20098;-84
2022/03/12 09:23:37;;;;;;;4.78;3.70;;;12.10;1.00;;;;;;5030559;28;20929;-84
2022/03/12 09:26:05;;;;;;;4.45;3.97;;;12.10;1.00;;;;;;5014785;28;20176;-91
2022/03/12 09:28:31;;;;;;;4.63;3.60;;;12.10;1.00;;;;;;5027376;28;20055;-89
2022/03/12 09:30:56;;;;;;;5.50;4.03;;;12.00;1.00;;;;;;5029690;28;20057;-90
2022/03/12 09:33:23;;;;;;;4.10;3.45;;;12.20;1.00;;;;;;5014182;28;20021;-87
2022/03/12 09:35:50;;;;;;;4.07;3.67;;;12.30;1.00;;;;;;5031455;28;20036;-88
2022/03/12 09:38:16;;;;;;;4.35;3.65;;;12.30;1.00;;;;;;5031207;28;20026;-90
2022/03/12 09:40:43;;;;;;;4.32;3.55;;;12.50;1.00;;;;;;5031410;28;20017;-88
2022/03/12 09:43:09;;;;;;;5.30;4.18;;;12.50;1.00;;;;;;5031742;28;20030;-91
2022/03/12 09:45:35;;;;;;;3.83;3.42;;;12.40;1.00;;;;;;5031538;28;20029;-89
2022/03/12 09:48:01;;;;;;;5.20;3.92;;;12.30;1.00;;;;;;5032277;28;20030;-86
2022/03/12 09:50:27;;;;;;;4.60;3.95;;;12.10;1.00;;;;;;5030799;28;20366;-86
2022/03/12 09:52:52;;;;;;;3.92;3.53;;;12.30;1.00;;;;;;5013014;28;20025;-87
2022/03/12 09:55:19;;;;;;;4.03;3.60;;;12.40;1.00;;;;;;5031800;28;20009;-87
2022/03/12 09:57:47;;;;;;;4.53;3.60;;;12.50;1.00;;;;;;5030869;28;20033;-86
2022/03/12 10:00:13;;;;;;;9.07;4.40;;;12.40;1.00;;;;;;5014106;28;20068;-89
2022/03/12 10:02:39;;;;;;;4.95;3.78;;;12.40;1.00;;;;;;5030239;28;20032;-86
2022/03/12 10:05:05;;;;;;;7.15;4.22;;;12.60;1.00;;;;;;5031131;28;20104;-88
2022/03/12 10:07:31;;;;;;;4.80;4.28;;;12.50;1.00;;;;;;5013795;28;20532;-86
2022/03/12 10:09:57;;;;;;;4.97;4.00;;;12.50;1.00;;;;;;5015060;28;20053;-91
2022/03/12 10:12:23;;;;;;;4.40;3.78;;;12.60;1.00;;;;;;5030835;28;20026;-89
2022/03/12 10:14:49;;;;;;;5.32;4.53;;;12.60;1.00;;;;;;5016719;28;20120;-91
2022/03/12 10:17:17;;;;;;;4.72;4.00;;;12.60;1.00;;;;;;5014493;28;20091;-91
2022/03/12 10:19:45;;;;;;;7.72;4.38;;;12.70;1.00;;;;;;5031538;28;20037;-91
2022/03/12 10:22:11;;;;;;;6.03;5.00;;;12.70;1.00;;;;;;5014445;28;20038;-91
2022/03/12 10:24:37;;;;;;;6.88;4.90;;;12.70;1.00;;;;;;5032439;28;20033;-91
2022/03/12 10:27:06;;;;;;;5.78;4.57;;;12.70;1.00;;;;;;5031373;28;20029;-91
2022/03/12 10:29:34;;;;;;;5.53;4.70;;;12.70;1.00;;;;;;5032004;28;20347;-91
2022/03/12 10:32:20;;;;;;;4.90;4.40;;;12.50;1.00;;;;;;5013662;28;20038;-91
2022/03/12 10:34:52;;;;;;;5.05;4.18;;;12.50;1.00;;;;;;5030536;28;20037;-90
2022/03/12 10:37:19;;;;;;;6.07;4.45;;;12.60;1.00;;;;;;5029711;28;20033;-90
2022/03/12 10:39:45;;;;;;;6.50;4.45;;;12.60;1.00;;;;;;5016140;28;20022;-90
2022/03/12 10:42:14;;;;;;;6.53;4.78;;;12.70;1.00;;;;;;5031200;28;20036;-90
2022/03/12 10:44:41;;;;;;;7.85;4.95;;;12.60;1.00;;;;;;5034584;28;20026;-91
2022/03/12 10:47:23;;;;;;;7.40;4.88;;;12.70;1.00;;;;;;5035214;28;20068;-93
2022/03/12 10:50:02;;;;;;;6.63;4.82;;;12.70;1.00;;;;;;5035920;28;20033;-91
2022/03/12 10:52:29;;;;;;;5.05;4.47;;;12.80;1.00;;;;;;5022337;28;20038;-88
2022/03/12 10:54:56;;;;;;;5.85;4.85;;;12.70;1.00;;;;;;5020539;28;20030;-89
2022/03/12 10:57:21;;;;;;;4.95;4.20;;;12.70;1.00;;;;;;5035042;28;20025;-89
2022/03/12 10:59:55;;;;;;;7.03;5.03;;;12.80;1.00;;;;;;5034127;28;20033;-90
2022/03/12 11:02:22;;;;;;;4.82;4.28;;;12.80;1.00;;;;;;5034976;28;20737;-90
2022/03/12 11:04:47;;;;;;;6.00;4.60;;;12.80;1.00;;;;;;5035219;28;20105;-92
2022/03/12 11:07:26;;;;;;;5.40;4.47;;;13.00;1.00;;;;;;5036563;28;20045;-92
2022/03/12 11:09:53;;;;;;;6.93;4.95;;;13.20;1.00;;;;;;5033871;28;20025;-89
2022/03/12 11:12:31;;;;;;;5.70;4.60;;;13.10;1.00;;;;;;5034039;28;20064;-91
2022/03/12 11:15:03;;;;;;;5.75;4.78;;;13.10;1.00;;;;;;5018435;28;20021;-92
2022/03/12 11:17:28;;;;;;;5.72;5.00;;;12.90;1.00;;;;;;5035124;28;20103;-92
2022/03/12 11:19:57;;;;;;;8.18;5.40;;;12.90;1.00;;;;;;5017605;28;20033;-93
2022/03/12 11:22:23;;;;;;;6.43;5.18;;;13.20;1.00;;;;;;5035892;28;20049;-93
2022/03/12 11:24:54;;;;;;;6.45;5.13;;;13.30;1.00;;;;;;5034346;28;20037;-92
2022/03/12 11:27:34;;;;;;;8.77;5.80;;;13.20;1.00;;;;;;5035218;28;20033;-93
2022/03/12 11:30:08;;;;;;;6.40;5.22;;;13.10;1.00;;;;;;5036366;28;20296;-91
2022/03/12 11:32:35;;;;;;;9.35;5.95;;;13.30;1.00;;;;;;5035027;28;20517;-96
2022/03/12 11:35:06;;;;;;;4.88;4.38;;;13.40;1.00;;;;;;5017747;28;20075;-96
2022/03/12 11:37:34;;;;;;;5.93;5.13;;;13.40;1.00;;;;;;5031385;28;20032;-93
2022/03/12 11:40:00;;;;;;;5.95;5.32;;;13.40;1.00;;;;;;5020127;28;20087;-93
2022/03/12 11:42:31;;;;;;;7.60;5.65;;;13.60;1.00;;;;;;5035142;28;20095;-90
2022/03/12 11:44:59;;;;;;;9.45;5.20;;;13.60;1.00;;;;;;5018009;28;20033;-93
2022/03/12 11:47:30;;;;;;;7.72;5.25;;;13.80;1.00;;;;;;5034609;28;20025;-95
2022/03/12 11:49:58;;;;;;;7.80;5.55;;;13.80;1.00;;;;;;5034823;28;20060;-95
2022/03/12 11:52:24;;;;;;;8.25;5.80;;;13.80;1.00;;;;;;5035291;28;20033;-92
2022/03/12 11:54:54;;;;;;;8.15;6.22;;;13.70;1.00;;;;;;5019229;28;20030;-93
2022/03/12 11:57:27;;;;;;;8.20;5.70;;;13.70;1.00;;;;;;5035090;28;20029;-94
2022/03/12 11:59:53;;;;;;;8.07;6.28;;;14.00;1.00;;;;;;5018377;28;20025;-93
2022/03/12 12:02:33;;;;;;;6.90;6.03;;;14.00;1.00;;;;;;5018352;28;20486;-90
2022/03/12 12:05:06;;;;;;;7.05;5.97;;;14.00;1.00;;;;;;5033666;28;20044;-90
2022/03/12 12:07:36;;;;;;;7.72;6.20;;;14.10;1.00;;;;;;5012194;28;20040;-92
2022/03/12 12:10:07;;;;;;;7.75;6.43;;;14.20;1.00;;;;;;5032046;28;20037;-91
2022/03/12 12:12:34;;;;;;;9.10;6.78;;;14.40;1.00;;;;;;5033181;28;20033;-91
2022/03/12 12:15:04;;;;;;;6.32;5.70;;;14.80;1.00;;;;;;5033330;28;20032;-94
2022/03/12 12:17:33;;;;;;;8.80;6.28;;;15.10;1.00;;;;;;5033494;28;20060;-94
2022/03/12 12:19:59;;;;;;;7.65;6.18;;;15.60;1.00;;;;;;5032517;28;20029;-89
2022/03/12 12:22:26;;;;;;;6.82;5.93;;;15.90;1.00;;;;;;5033332;28;20056;-94
2022/03/12 12:24:53;;;;;;;12.27;8.68;;;15.70;1.00;;;;;;5033368;28;20389;-94
2022/03/12 12:27:23;;;;;;;7.95;6.40;;;15.70;1.00;;;;;;5017505;28;20021;-93
2022/03/12 12:29:55;;;;;;;8.48;6.38;;;15.70;1.00;;;;;;5033004;28;20029;-95
2022/03/12 12:32:25;;;;;;;7.72;6.53;;;15.60;1.00;;;;;;5033961;28;20033;-93
2022/03/12 12:35:11;;;;;;;8.57;6.28;;;16.50;1.00;;;;;;5032678;28;20031;-92
2022/03/12 12:37:45;;;;;;;6.15;5.55;;;17.50;1.00;;;;;;5029361;28;20517;-96
2022/03/12 12:40:20;;;;;;;7.80;6.25;;;18.40;1.00;;;;;;5033445;28;20021;-93
2022/03/12 12:42:47;;;;;;;8.05;6.57;;;18.40;1.00;;;;;;5032264;28;20029;-94
2022/03/12 12:45:14;;;;;;;8.05;6.68;;;19.00;1.00;;;;;;5033053;28;20520;-93
2022/03/12 12:47:40;;;;;;;6.70;6.00;;;19.50;99.90;;;;;;5032719;28;20429;-92
2022/03/12 12:50:22;;;;;;;7.07;6.30;;;19.60;99.90;;;;;;5033251;28;20017;-92
2022/03/12 12:53:08;;;;;;;8.07;6.63;;;19.50;99.90;;;;;;5032125;28;20521;-91
2022/03/12 12:55:35;;;;;;;7.55;6.18;;;18.90;99.90;;;;;;5032644;28;20033;-91
2022/03/12 12:58:01;;;;;;;9.05;7.53;;;18.20;99.90;;;;;;5031546;28;20072;-91
2022/03/12 13:00:26;;;;;;;9.15;7.28;;;17.70;99.90;;;;;;5032613;28;20025;-91